PTAVU SBJF-SBJF
Flight info
| Callsign | PTAVU |
|---|---|
| Flight time | 0h 3m |
| Altitude | 6500 |
| Route | DCT |
| Aircraft | C152/L-V/C |
Departure
| Time | 2026-04-15 15:22 |
|---|---|
| Airport | Francisco de Assis Airport (SBJF) |
Arrival
| Time | 2026-04-15 15:25 |
|---|---|
| Airport | Francisco de Assis Airport (SBJF) |
| Time | Latitude | Longitude | Altitude | Speed | Heading |
|---|---|---|---|---|---|
| 2026-04-15 15:03 | -21.79180 | -43.38515 | 2985 ft | 0 kts | 185° |
| 2026-04-15 15:13 | -21.79179 | -43.38515 | 2985 ft | 0 kts | 185° |
| 2026-04-15 15:14 | -21.79188 | -43.38515 | 2986 ft | 4 kts | 181° |
| 2026-04-15 15:14 | -21.79241 | -43.38515 | 2982 ft | 11 kts | 177° |
| 2026-04-15 15:14 | -21.79293 | -43.38522 | 2982 ft | 7 kts | 318° |
| 2026-04-15 15:14 | -21.79282 | -43.38524 | 2982 ft | 0 kts | 49° |
| 2026-04-15 15:18 | -21.79270 | -43.38526 | 2982 ft | 5 kts | 324° |
| 2026-04-15 15:18 | -21.79262 | -43.38537 | 2980 ft | 0 kts | 287° |
| 2026-04-15 15:18 | -21.79259 | -43.38567 | 2981 ft | 8 kts | 276° |
| 2026-04-15 15:18 | -21.79226 | -43.38618 | 2983 ft | 12 kts | 4° |
| 2026-04-15 15:19 | -21.79128 | -43.38609 | 2984 ft | 13 kts | 5° |
| 2026-04-15 15:19 | -21.79020 | -43.38597 | 2984 ft | 18 kts | 5° |
| 2026-04-15 15:19 | -21.78895 | -43.38583 | 2984 ft | 20 kts | 6° |
| 2026-04-15 15:19 | -21.78775 | -43.38573 | 2984 ft | 13 kts | 6° |
| 2026-04-15 15:20 | -21.78680 | -43.38564 | 2985 ft | 15 kts | 7° |
| 2026-04-15 15:20 | -21.78570 | -43.38552 | 2985 ft | 17 kts | 5° |
| 2026-04-15 15:20 | -21.78490 | -43.38564 | 2984 ft | 9 kts | 331° |
| 2026-04-15 15:20 | -21.78487 | -43.38543 | 2984 ft | 2 kts | 186° |
| 2026-04-15 15:21 | -21.78547 | -43.38549 | 2985 ft | 29 kts | 185° |
| 2026-04-15 15:21 | -21.78898 | -43.38584 | 2984 ft | 70 kts | 185° |
| 2026-04-15 15:21 | -21.79424 | -43.38637 | 3096 ft | 76 kts | 185° |
| 2026-04-15 15:21 | -21.79937 | -43.38671 | 3306 ft | 68 kts | 182° |
| 2026-04-15 15:22 | -21.80415 | -43.38713 | 3530 ft | 69 kts | 184° |
| 2026-04-15 15:22 | -21.80886 | -43.38608 | 3695 ft | 74 kts | 150° |
| 2026-04-15 15:22 | -21.81185 | -43.38190 | 3910 ft | 73 kts | 116° |
| 2026-04-15 15:22 | -21.81053 | -43.37642 | 4075 ft | 82 kts | 47° |
| 2026-04-15 15:23 | -21.80497 | -43.37398 | 4121 ft | 91 kts | 4° |
| 2026-04-15 15:23 | -21.79853 | -43.37319 | 4143 ft | 97 kts | 7° |
| 2026-04-15 15:23 | -21.79179 | -43.37203 | 4115 ft | 99 kts | 8° |
| 2026-04-15 15:23 | -21.78506 | -43.37114 | 4117 ft | 96 kts | 4° |
| 2026-04-15 15:24 | -21.77933 | -43.37098 | 4048 ft | 76 kts | 1° |
| 2026-04-15 15:24 | -21.77412 | -43.37214 | 3795 ft | 81 kts | 324° |
| 2026-04-15 15:24 | -21.77100 | -43.37681 | 3581 ft | 76 kts | 277° |
| 2026-04-15 15:24 | -21.77142 | -43.38211 | 3381 ft | 69 kts | 237° |
| 2026-04-15 15:25 | -21.77524 | -43.38497 | 3168 ft | 72 kts | 184° |
| 2026-04-15 15:25 | -21.78025 | -43.38498 | 3055 ft | 70 kts | 185° |
| 2026-04-15 15:25 | -21.78490 | -43.38542 | 2992 ft | 61 kts | 186° |
| 2026-04-15 15:25 | -21.78846 | -43.38581 | 2984 ft | 43 kts | 185° |
| 2026-04-15 15:26 | -21.79198 | -43.38615 | 2984 ft | 67 kts | 185° |
| 2026-04-15 15:26 | -21.79687 | -43.38660 | 3109 ft | 71 kts | 182° |
| 2026-04-15 15:26 | -21.80180 | -43.38680 | 3348 ft | 65 kts | 180° |
| 2026-04-15 15:26 | -21.80615 | -43.38688 | 3555 ft | 67 kts | 173° |
| 2026-04-15 15:27 | -21.80960 | -43.38373 | 3757 ft | 71 kts | 115° |
| 2026-04-15 15:27 | -21.80965 | -43.37816 | 3897 ft | 83 kts | 67° |
| 2026-04-15 15:27 | -21.80487 | -43.37473 | 4008 ft | 90 kts | 17° |
| 2026-04-15 15:27 | -21.79854 | -43.37320 | 4051 ft | 95 kts | 9° |
| 2026-04-15 15:28 | -21.79187 | -43.37207 | 4070 ft | 97 kts | 5° |
| 2026-04-15 15:28 | -21.78507 | -43.37156 | 4083 ft | 93 kts | 1° |
| 2026-04-15 15:28 | -21.77904 | -43.37147 | 3919 ft | 84 kts | 353° |
| 2026-04-15 15:28 | -21.77390 | -43.37415 | 3682 ft | 81 kts | 308° |
| 2026-04-15 15:29 | -21.77216 | -43.37935 | 3463 ft | 73 kts | 262° |
| 2026-04-15 15:29 | -21.77390 | -43.38424 | 3228 ft | 71 kts | 219° |
| 2026-04-15 15:29 | -21.77860 | -43.38506 | 3091 ft | 71 kts | 179° |
| 2026-04-15 15:29 | -21.78352 | -43.38529 | 3016 ft | 65 kts | 185° |
| 2026-04-15 15:30 | -21.78732 | -43.38569 | 2984 ft | 46 kts | 187° |
| 2026-04-15 15:30 | -21.79088 | -43.38604 | 2983 ft | 67 kts | 185° |
| 2026-04-15 15:30 | -21.79596 | -43.38644 | 3090 ft | 74 kts | 182° |
| 2026-04-15 15:30 | -21.80092 | -43.38651 | 3318 ft | 69 kts | 179° |
| 2026-04-15 15:31 | -21.80563 | -43.38615 | 3579 ft | 65 kts | 161° |
| 2026-04-15 15:31 | -21.80829 | -43.38183 | 3724 ft | 78 kts | 99° |
| 2026-04-15 15:31 | -21.80567 | -43.37731 | 3937 ft | 85 kts | 26° |
| 2026-04-15 15:31 | -21.79962 | -43.37589 | 3969 ft | 95 kts | 11° |
| 2026-04-15 15:32 | -21.79270 | -43.37448 | 3934 ft | 105 kts | 12° |
| 2026-04-15 15:32 | -21.78622 | -43.37278 | 3967 ft | 82 kts | 15° |
| 2026-04-15 15:32 | -21.78056 | -43.37196 | 3769 ft | 86 kts | 352° |
| 2026-04-15 15:32 | -21.77538 | -43.37430 | 3639 ft | 80 kts | 316° |
| 2026-04-15 15:33 | -21.77284 | -43.37924 | 3473 ft | 75 kts | 273° |
| 2026-04-15 15:33 | -21.77477 | -43.38399 | 3299 ft | 73 kts | 209° |
| 2026-04-15 15:33 | -21.77980 | -43.38494 | 3136 ft | 72 kts | 186° |
| 2026-04-15 15:33 | -21.78462 | -43.38540 | 3009 ft | 65 kts | 186° |
| 2026-04-15 15:34 | -21.78851 | -43.38580 | 2984 ft | 48 kts | 185° |
| 2026-04-15 15:34 | -21.79140 | -43.38609 | 2984 ft | 36 kts | 185° |
| 2026-04-15 15:34 | -21.79282 | -43.38623 | 2984 ft | 17 kts | 184° |
| 2026-04-15 15:34 | -21.79356 | -43.38592 | 2983 ft | 4 kts | 93° |
| 2026-04-15 15:35 | -21.79353 | -43.38539 | 2980 ft | 7 kts | 44° |
| 2026-04-15 15:35 | -21.79313 | -43.38526 | 2980 ft | 5 kts | 7° |
| 2026-04-15 15:35 | -21.79260 | -43.38517 | 2980 ft | 10 kts | 11° |
| 2026-04-15 15:35 | -21.79220 | -43.38511 | 2980 ft | 0 kts | 3° |